Time;durP1;ratioP1;P1;durP2;ratioP2;P2;SDS_P1;SDS_P2;PMS_P1;PMS_P2;Temp;Humidity;BMP_temperature;BMP_pressure;BME280_temperature;BME280_humidity;BME280_pressure;Samples;Min_cycle;Max_cycle;Signal;HPM_P1;HPM_P2
2023/09/26 00:00:21;;;;;;;7.10;4.70;;;;;;;13.30;100.00;98674.78;5134517;28;20198;-72
2023/09/26 00:02:48;;;;;;;4.97;4.43;;;;;;;13.31;100.00;98677.22;5134196;28;20650;-72
2023/09/26 00:05:15;;;;;;;4.63;4.23;;;;;;;13.28;100.00;98682.16;5134375;28;20226;-72
2023/09/26 00:07:42;;;;;;;4.97;3.90;;;;;;;13.21;100.00;98674.22;5134409;28;20226;-72
2023/09/26 00:10:10;;;;;;;4.47;4.03;;;;;;;13.26;100.00;98678.91;5134390;28;20217;-72
2023/09/26 00:12:37;;;;;;;4.97;3.73;;;;;;;13.31;100.00;98665.72;5134128;28;20209;-72
2023/09/26 00:15:04;;;;;;;4.70;4.07;;;;;;;13.31;100.00;98661.19;5134368;28;20563;-72
2023/09/26 00:17:30;;;;;;;5.17;4.37;;;;;;;13.30;100.00;98664.88;5134272;28;20278;-72
2023/09/26 00:19:57;;;;;;;6.60;4.10;;;;;;;13.14;100.00;98670.81;5134375;28;20250;-72
2023/09/26 00:22:24;;;;;;;5.00;4.00;;;;;;;13.16;100.00;98671.41;5134004;28;20671;-72
2023/09/26 00:24:51;;;;;;;4.40;4.10;;;;;;;13.18;100.00;98676.53;5134136;28;20221;-72
2023/09/26 00:27:18;;;;;;;5.33;4.17;;;;;;;13.08;100.00;98671.69;5137150;27;20608;-72
2023/09/26 00:29:45;;;;;;;8.13;4.30;;;;;;;13.16;100.00;98667.94;5138288;27;20202;-72
2023/09/26 00:32:12;;;;;;;4.47;3.80;;;;;;;13.14;100.00;98669.97;5137855;27;20218;-72
2023/09/26 00:34:38;;;;;;;4.93;3.63;;;;;;;13.11;100.00;98671.25;5137870;27;20210;-72
2023/09/26 00:37:05;;;;;;;5.00;3.83;;;;;;;13.03;100.00;98674.19;5138044;27;20199;-72
2023/09/26 00:39:31;;;;;;;8.07;4.17;;;;;;;13.04;100.00;98677.69;5138053;27;20201;-72
2023/09/26 00:41:57;;;;;;;4.70;4.27;;;;;;;13.06;100.00;98678.28;5137408;27;20672;-72
2023/09/26 00:44:24;;;;;;;4.80;4.30;;;;;;;13.05;100.00;98668.63;5137547;27;20722;-72
2023/09/26 00:46:50;;;;;;;5.97;4.77;;;;;;;13.16;100.00;98666.06;5137649;27;20679;-72
2023/09/26 00:49:16;;;;;;;5.30;4.80;;;;;;;13.10;100.00;98663.44;5137862;27;20229;-72
2023/09/26 00:51:43;;;;;;;6.83;5.70;;;;;;;13.06;100.00;98660.41;5137875;27;20570;-72
2023/09/26 00:54:12;;;;;;;5.87;5.37;;;;;;;13.08;100.00;98658.34;5137543;27;20562;-72
2023/09/26 00:56:39;;;;;;;6.00;5.20;;;;;;;13.07;100.00;98666.56;5137777;27;20216;-72
2023/09/26 00:59:07;;;;;;;6.03;4.90;;;;;;;13.11;100.00;98660.56;5138528;27;20298;-72
2023/09/26 01:01:36;;;;;;;5.13;4.70;;;;;;;12.93;100.00;98662.38;5137639;27;20202;-72
2023/09/26 01:04:04;;;;;;;5.40;4.90;;;;;;;12.91;100.00;98669.75;5137560;27;20232;-72
2023/09/26 01:06:30;;;;;;;6.00;5.17;;;;;;;13.10;100.00;98663.44;5137587;27;20209;-72
2023/09/26 01:08:57;;;;;;;6.43;5.67;;;;;;;12.99;100.00;98667.69;5137470;27;20231;-72
2023/09/26 01:11:23;;;;;;;6.07;5.30;;;;;;;12.98;100.00;98668.69;5137121;27;20558;-72
2023/09/26 01:13:50;;;;;;;6.50;5.97;;;;;;;12.96;100.00;98673.41;5137186;27;20671;-72
2023/09/26 01:16:18;;;;;;;7.00;5.80;;;;;;;12.93;100.00;98668.50;5137066;27;20662;-72
2023/09/26 01:18:45;;;;;;;6.13;5.30;;;;;;;12.90;100.00;98666.28;5137246;27;20221;-72
2023/09/26 01:21:12;;;;;;;5.77;5.27;;;;;;;12.89;100.00;98669.97;5136982;27;20623;-72
2023/09/26 01:23:41;;;;;;;6.10;5.60;;;;;;;12.87;100.00;98653.38;5137214;27;20205;-72
2023/09/26 01:26:08;;;;;;;6.97;5.00;;;;;;;12.80;100.00;98665.94;5136875;27;20569;-72
2023/09/26 01:28:36;;;;;;;6.60;6.00;;;;;;;12.84;100.00;98661.81;5137152;27;20230;-72
2023/09/26 01:31:02;;;;;;;6.87;6.17;;;;;;;12.84;100.00;98669.81;5136915;27;20321;-72
2023/09/26 01:33:29;;;;;;;7.43;5.67;;;;;;;12.81;100.00;98656.94;5137125;27;20190;-72
2023/09/26 01:35:55;;;;;;;6.53;6.03;;;;;;;12.81;100.00;98658.75;5137016;27;20201;-72
2023/09/26 01:38:24;;;;;;;7.90;5.40;;;;;;;12.79;100.00;98661.66;5136162;27;20580;-72
2023/09/26 01:40:50;;;;;;;6.40;5.63;;;;;;;12.72;100.00;98663.56;5136939;27;20206;-72
2023/09/26 01:43:17;;;;;;;6.20;5.70;;;;;;;12.77;100.00;98661.06;5136879;27;20274;-72
2023/09/26 01:45:43;;;;;;;6.67;6.00;;;;;;;12.63;100.00;98662.19;5136411;27;20221;-72
2023/09/26 01:48:09;;;;;;;7.40;5.70;;;;;;;12.61;100.00;98661.59;5136371;27;20585;-72
2023/09/26 01:50:36;;;;;;;6.93;5.23;;;;;;;12.63;100.00;98661.38;5136739;27;20311;-72
2023/09/26 01:53:04;;;;;;;5.80;5.30;;;;;;;12.69;100.00;98664.00;5136702;27;20211;-72
2023/09/26 01:55:30;;;;;;;6.37;4.87;;;;;;;12.67;100.00;98662.56;5136684;27;20196;-72
2023/09/26 01:57:57;;;;;;;5.83;5.03;;;;;;;12.64;100.00;98657.66;5136493;27;20228;-72
2023/09/26 02:00:24;;;;;;;5.30;4.80;;;;;;;12.64;100.00;98652.34;5136268;27;20682;-72
2023/09/26 02:02:52;;;;;;;5.43;4.70;;;;;;;12.64;100.00;98653.16;5136182;27;20670;-72
2023/09/26 02:05:21;;;;;;;5.23;4.73;;;;;;;12.66;100.00;98656.41;5136403;27;20224;-72
2023/09/26 02:07:48;;;;;;;4.80;4.37;;;;;;;12.65;100.00;98657.47;5136043;27;20351;-72
2023/09/26 02:10:15;;;;;;;4.50;4.10;;;;;;;12.53;100.00;98655.72;5136376;27;20566;-72
2023/09/26 02:12:52;;;;;;;5.20;3.97;;;;;;;12.57;100.00;98652.38;5135990;27;20216;-72
2023/09/26 02:15:18;;;;;;;4.77;4.23;;;;;;;12.59;100.00;98650.34;5136234;27;20201;-72
2023/09/26 02:17:45;;;;;;;4.80;4.40;;;;;;;12.55;100.00;98650.97;5136046;27;20224;-72
2023/09/26 02:20:14;;;;;;;4.73;4.33;;;;;;;12.53;100.00;98656.50;5136135;27;20208;-72
2023/09/26 02:22:42;;;;;;;4.70;4.23;;;;;;;12.50;100.00;98651.63;5136117;27;20210;-72
2023/09/26 02:25:10;;;;;;;5.30;4.30;;;;;;;12.43;100.00;98647.38;5135981;27;20220;-72
2023/09/26 02:27:37;;;;;;;6.27;4.47;;;;;;;12.32;100.00;98648.88;5135839;27;20245;-72
2023/09/26 02:30:04;;;;;;;6.03;4.80;;;;;;;12.34;100.00;98649.47;5135949;27;20205;-72
2023/09/26 02:32:33;;;;;;;5.40;4.90;;;;;;;12.35;100.00;98648.44;5135472;27;20261;-72
2023/09/26 02:35:00;;;;;;;6.57;6.03;;;;;;;12.41;100.00;98646.75;5135484;27;20599;-72
2023/09/26 02:37:26;;;;;;;8.03;7.23;;;;;;;12.52;100.00;98654.09;5135590;27;20227;-72
2023/09/26 02:39:52;;;;;;;8.00;7.23;;;;;;;12.50;100.00;98642.81;5135721;27;20207;-72
2023/09/26 02:42:19;;;;;;;8.00;7.30;;;;;;;12.54;100.00;98636.84;5135653;27;20204;-72
2023/09/26 02:44:45;;;;;;;8.50;7.37;;;;;;;12.62;100.00;98638.41;5135529;27;20228;-72
2023/09/26 02:47:11;;;;;;;9.40;7.50;;;;;;;12.53;100.00;98626.38;5135520;27;20203;-72
2023/09/26 02:49:38;;;;;;;8.50;7.57;;;;;;;12.55;100.00;98625.13;5134514;27;20210;-72
2023/09/26 02:52:04;;;;;;;7.93;6.93;;;;;;;12.53;100.00;98639.72;5135491;27;20205;-72
2023/09/26 02:54:31;;;;;;;7.80;7.00;;;;;;;12.50;100.00;98637.47;5135072;27;20555;-72
2023/09/26 02:56:58;;;;;;;8.03;7.40;;;;;;;12.45;100.00;98626.63;5135322;27;20254;-72
2023/09/26 02:59:24;;;;;;;7.90;7.20;;;;;;;12.59;100.00;98634.31;5135336;27;20239;-72
2023/09/26 03:01:51;;;;;;;8.40;7.60;;;;;;;12.49;100.00;98639.34;5135293;27;20303;-72
2023/09/26 03:04:18;;;;;;;8.80;7.23;;;;;;;12.45;100.00;98631.97;5135094;27;20216;-72
2023/09/26 03:06:44;;;;;;;7.90;7.07;;;;;;;12.36;100.00;98628.75;5135213;27;20204;-72
2023/09/26 03:09:10;;;;;;;7.23;6.57;;;;;;;12.36;100.00;98636.75;5135120;27;20226;-72
2023/09/26 03:11:37;;;;;;;7.97;7.30;;;;;;;12.39;100.00;98630.97;5134786;27;20208;-72
2023/09/26 03:14:03;;;;;;;7.90;7.20;;;;;;;12.41;100.00;98642.25;5135063;27;20205;-72
2023/09/26 03:16:30;;;;;;;8.03;7.33;;;;;;;12.37;100.00;98635.72;5134723;27;20202;-72
2023/09/26 03:18:56;;;;;;;8.47;7.77;;;;;;;12.40;100.00;98637.97;5134954;27;20234;-72
2023/09/26 03:21:23;;;;;;;9.27;8.27;;;;;;;12.38;100.00;98636.56;5134989;27;20210;-72
2023/09/26 03:23:50;;;;;;;8.37;7.67;;;;;;;12.39;100.00;98633.63;5134883;27;20311;-72
2023/09/26 03:26:16;;;;;;;8.90;8.00;;;;;;;12.38;100.00;98636.56;5134767;27;20228;-72
2023/09/26 03:28:43;;;;;;;8.77;7.97;;;;;;;12.27;100.00;98634.56;5134414;27;20232;-72
2023/09/26 03:31:09;;;;;;;9.90;7.73;;;;;;;12.25;100.00;98641.97;5134420;27;20222;-72
2023/09/26 03:33:36;;;;;;;9.00;8.10;;;;;;;12.26;100.00;98631.06;5134380;27;20205;-72
2023/09/26 03:36:03;;;;;;;8.57;7.67;;;;;;;12.27;100.00;98629.22;5134322;27;20220;-72
2023/09/26 03:38:30;;;;;;;8.93;7.93;;;;;;;12.23;100.00;98638.69;5134229;27;20224;-72
2023/09/26 03:41:08;;;;;;;7.97;7.17;;;;;;;12.18;100.00;98635.84;5134101;27;20211;-72
2023/09/26 03:43:35;;;;;;;9.17;7.47;;;;;;;12.24;100.00;98630.47;5134563;27;20196;-72
2023/09/26 03:46:04;;;;;;;8.77;7.97;;;;;;;12.23;100.00;98631.50;5134368;27;20270;-72
2023/09/26 03:48:32;;;;;;;8.90;8.00;;;;;;;12.18;100.00;98620.69;5134385;27;20229;-72
2023/09/26 03:51:12;;;;;;;10.37;7.73;;;;;;;12.20;100.00;98633.81;5134515;28;20213;-72
2023/09/26 03:53:39;;;;;;;9.00;8.10;;;;;;;12.24;100.00;98625.16;5134091;28;20658;-72
2023/09/26 03:56:06;;;;;;;9.37;8.37;;;;;;;12.28;100.00;98629.00;5134499;28;20202;-72
2023/09/26 03:58:33;;;;;;;14.37;8.57;;;;;;;12.21;100.00;98620.22;5134430;28;20228;-72
2023/09/26 04:01:09;;;;;;;9.47;8.50;;;;;;;12.20;100.00;98629.28;5135633;27;20589;-72
2023/09/26 04:03:36;;;;;;;10.00;8.60;;;;;;;12.20;100.00;98631.94;5138296;27;20208;-72
2023/09/26 04:06:02;;;;;;;10.00;9.10;;;;;;;12.19;100.00;98626.81;5138425;27;20223;-72
2023/09/26 04:08:28;;;;;;;10.37;9.23;;;;;;;12.19;100.00;98627.63;5138390;27;20226;-72
2023/09/26 04:10:55;;;;;;;9.53;8.43;;;;;;;12.21;100.00;98635.44;5138616;27;20199;-72
2023/09/26 04:13:21;;;;;;;9.40;8.53;;;;;;;12.17;100.00;98629.69;5138518;27;20215;-72
2023/09/26 04:15:47;;;;;;;9.20;8.40;;;;;;;12.09;100.00;98632.63;5138417;27;20199;-72
2023/09/26 04:18:14;;;;;;;9.60;8.70;;;;;;;12.11;100.00;98630.56;5138202;27;20228;-72
2023/09/26 04:20:41;;;;;;;10.03;9.03;;;;;;;12.06;100.00;98630.38;5138223;27;20226;-72
2023/09/26 04:23:07;;;;;;;11.10;9.30;;;;;;;12.08;100.00;98624.84;5138132;27;20208;-72
2023/09/26 04:25:35;;;;;;;10.27;9.17;;;;;;;12.03;100.00;98616.69;5137764;27;20229;-72
2023/09/26 04:28:02;;;;;;;10.50;9.40;;;;;;;12.01;100.00;98621.38;5137531;27;20223;-72
2023/09/26 04:30:30;;;;;;;10.60;9.60;;;;;;;11.99;100.00;98615.47;5137808;27;20207;-72
2023/09/26 04:32:56;;;;;;;10.93;9.77;;;;;;;11.99;100.00;98618.97;5137996;27;20191;-72
2023/09/26 04:35:22;;;;;;;10.30;8.87;;;;;;;11.98;100.00;98611.19;5138098;27;20201;-72
2023/09/26 04:37:49;;;;;;;9.90;8.90;;;;;;;12.02;100.00;98615.06;5137601;27;20233;-72
2023/09/26 04:40:16;;;;;;;9.93;8.93;;;;;;;11.99;100.00;98610.97;5137364;27;20202;-72
2023/09/26 04:42:48;;;;;;;9.67;8.70;;;;;;;11.99;100.00;98615.47;5137357;27;20217;-72
2023/09/26 04:45:14;;;;;;;9.33;8.10;;;;;;;11.99;100.00;98616.31;5137654;27;20213;-72
2023/09/26 04:47:41;;;;;;;8.97;8.17;;;;;;;11.84;100.00;98613.09;5137027;27;20714;-72
2023/09/26 04:50:09;;;;;;;8.90;8.00;;;;;;;11.74;100.00;98611.91;5137687;27;20207;-72
2023/09/26 04:52:36;;;;;;;9.23;8.30;;;;;;;11.69;100.00;98614.38;5137664;27;20209;-72
2023/09/26 04:55:02;;;;;;;8.87;8.07;;;;;;;11.61;100.00;98612.78;5137162;27;20542;-72
2023/09/26 04:57:29;;;;;;;9.67;8.70;;;;;;;11.58;100.00;98629.16;5137262;27;20226;-72
2023/09/26 04:59:55;;;;;;;8.73;7.83;;;;;;;11.53;100.00;98610.34;5137089;27;20211;-72
2023/09/26 05:02:21;;;;;;;12.43;8.43;;;;;;;11.52;100.00;98622.03;5136716;27;20213;-72
2023/09/26 05:04:48;;;;;;;8.90;7.93;;;;;;;11.60;100.00;98613.00;5136790;27;20202;-72
2023/09/26 05:07:16;;;;;;;8.97;7.67;;;;;;;11.58;100.00;98618.50;5136655;27;20259;-72
2023/09/26 05:09:43;;;;;;;12.70;7.73;;;;;;;11.53;100.00;98623.66;5137247;27;20286;-72
2023/09/26 05:12:09;;;;;;;9.43;8.10;;;;;;;11.56;100.00;98611.75;5136368;27;20566;-72
2023/09/26 05:14:35;;;;;;;9.80;8.13;;;;;;;11.60;100.00;98613.00;5136329;27;20692;-72
2023/09/26 05:17:01;;;;;;;11.77;8.73;;;;;;;11.62;100.00;98614.41;5136521;27;20202;-72
2023/09/26 05:19:28;;;;;;;12.13;8.27;;;;;;;11.63;100.00;98618.75;5136700;27;20202;-72
2023/09/26 05:21:54;;;;;;;9.73;8.17;;;;;;;11.56;100.00;98622.41;5136631;27;20689;-72
2023/09/26 05:24:22;;;;;;;11.93;7.63;;;;;;;11.59;100.00;98629.97;5136366;27;20202;-72
2023/09/26 05:26:49;;;;;;;10.73;8.43;;;;;;;11.60;100.00;98626.31;5136515;27;20307;-72
2023/09/26 05:29:15;;;;;;;9.77;8.10;;;;;;;11.56;100.00;98628.56;5136633;27;20222;-72
2023/09/26 05:31:41;;;;;;;11.27;8.13;;;;;;;11.55;100.00;98631.44;5136685;27;20220;-72
2023/09/26 05:34:08;;;;;;;10.23;7.77;;;;;;;11.67;100.00;98627.91;5136721;27;20199;-72
2023/09/26 05:36:34;;;;;;;8.27;7.33;;;;;;;11.61;100.00;98630.63;5136165;27;20664;-72
2023/09/26 05:39:01;;;;;;;8.67;7.60;;;;;;;11.60;100.00;98635.13;5136210;27;20705;-72
2023/09/26 05:41:27;;;;;;;8.23;7.33;;;;;;;11.66;100.00;98634.28;5136534;27;20203;-72
2023/09/26 05:43:53;;;;;;;8.27;7.23;;;;;;;11.64;100.00;98638.19;5136044;27;20248;-72
2023/09/26 05:46:21;;;;;;;8.27;7.23;;;;;;;11.63;100.00;98628.56;5136050;27;20220;-72
2023/09/26 05:48:47;;;;;;;7.60;6.73;;;;;;;11.65;100.00;98624.66;5136157;27;20279;-72
2023/09/26 05:51:14;;;;;;;7.53;6.43;;;;;;;11.68;100.00;98629.56;5136308;27;20203;-72
2023/09/26 05:53:40;;;;;;;7.93;7.13;;;;;;;11.75;100.00;98627.69;5136292;27;20204;-72
2023/09/26 05:56:07;;;;;;;7.07;6.37;;;;;;;11.83;100.00;98630.09;5136059;27;20203;-72
2023/09/26 05:58:34;;;;;;;8.03;6.87;;;;;;;11.89;100.00;98633.78;5136218;27;20234;-72
2023/09/26 06:01:07;;;;;;;7.73;6.63;;;;;;;11.93;100.00;98633.13;5136104;27;20210;-72
2023/09/26 06:03:33;;;;;;;7.53;6.30;;;;;;;11.98;100.00;98640.50;5136036;27;20249;-72
2023/09/26 06:06:03;;;;;;;7.43;6.47;;;;;;;12.02;100.00;98637.16;5136125;27;20227;-72
2023/09/26 06:08:30;;;;;;;7.07;6.37;;;;;;;11.92;100.00;98634.16;5135862;27;20219;-72
2023/09/26 06:10:56;;;;;;;7.33;6.63;;;;;;;12.03;100.00;98636.13;5135817;27;20213;-72
2023/09/26 06:13:22;;;;;;;7.40;6.63;;;;;;;11.98;100.00;98635.16;5135715;27;20200;-72
2023/09/26 06:15:49;;;;;;;7.30;6.20;;;;;;;12.06;100.00;98637.56;5135874;27;20204;-72
2023/09/26 06:18:16;;;;;;;6.87;6.10;;;;;;;12.08;100.00;98628.31;5135719;27;20232;-72
2023/09/26 06:20:44;;;;;;;8.07;6.23;;;;;;;12.05;100.00;98634.09;5135648;27;20206;-72
2023/09/26 06:23:10;;;;;;;8.17;5.97;;;;;;;12.16;100.00;98627.25;5135545;27;20198;-72
2023/09/26 06:25:37;;;;;;;7.90;6.70;;;;;;;12.22;100.00;98632.56;5134877;27;20583;-72
2023/09/26 06:28:03;;;;;;;8.30;6.60;;;;;;;12.28;100.00;98631.69;5135131;27;20590;-72
2023/09/26 06:30:30;;;;;;;7.30;6.50;;;;;;;12.32;100.00;98642.72;5134854;27;20209;-72
2023/09/26 06:32:56;;;;;;;9.00;6.40;;;;;;;12.38;100.00;98639.22;5135176;27;20191;-72
2023/09/26 06:35:22;;;;;;;7.40;6.60;;;;;;;12.45;100.00;98640.81;5135515;27;20199;-72
2023/09/26 06:37:49;;;;;;;7.13;6.53;;;;;;;12.45;100.00;98640.81;5135111;27;20585;-72
2023/09/26 06:40:15;;;;;;;8.27;6.97;;;;;;;12.48;100.00;98645.69;5134867;27;20702;-72
2023/09/26 06:42:42;;;;;;;7.00;6.40;;;;;;;12.50;100.00;98640.13;5135232;27;20213;-72
2023/09/26 06:45:09;;;;;;;8.03;6.43;;;;;;;12.53;100.00;98653.84;5135300;27;20656;-72
2023/09/26 06:47:36;;;;;;;6.50;5.90;;;;;;;12.61;100.00;98648.25;5134569;27;20230;-72
2023/09/26 06:50:02;;;;;;;7.17;6.47;;;;;;;12.63;100.00;98648.03;5134967;27;20208;-72
2023/09/26 06:52:30;;;;;;;7.17;6.47;;;;;;;12.62;100.00;98633.88;5135464;27;20590;-72
2023/09/26 06:54:57;;;;;;;6.87;6.17;;;;;;;12.72;100.00;98650.22;5134619;27;20737;-72
2023/09/26 06:57:26;;;;;;;6.50;5.50;;;;;;;12.83;100.00;98644.16;5134877;27;20224;-72
2023/09/26 06:59:53;;;;;;;7.17;6.47;;;;;;;12.82;100.00;98641.72;5134733;27;20742;-72
2023/09/26 07:02:20;;;;;;;6.60;6.00;;;;;;;12.95;100.00;98647.75;5134931;27;20572;-72
2023/09/26 07:04:52;;;;;;;8.23;5.67;;;;;;;12.98;100.00;98644.66;5135084;27;20209;-72
2023/09/26 07:07:18;;;;;;;6.10;5.53;;;;;;;12.98;100.00;98643.88;5135020;27;20213;-72
2023/09/26 07:09:44;;;;;;;7.40;5.63;;;;;;;13.03;100.00;98644.81;5134947;27;20574;-72
2023/09/26 07:12:11;;;;;;;7.60;5.30;;;;;;;13.14;100.00;98641.44;5134471;27;20664;-72
2023/09/26 07:14:37;;;;;;;6.07;5.47;;;;;;;13.02;100.00;98645.06;5134772;27;20258;-72
2023/09/26 07:17:04;;;;;;;6.60;6.00;;;;;;;13.15;100.00;98640.41;5134628;27;20206;-72
2023/09/26 07:19:32;;;;;;;6.40;5.83;;;;;;;13.20;100.00;98639.75;5134675;27;20254;-72
2023/09/26 07:21:59;;;;;;;8.80;5.70;;;;;;;13.26;100.00;98638.88;5134500;27;20725;-72
2023/09/26 07:24:26;;;;;;;6.97;5.63;;;;;;;13.20;100.00;98631.75;5134464;27;20714;-72
2023/09/26 07:26:53;;;;;;;7.30;5.73;;;;;;;13.48;100.00;98646.19;5134629;27;20294;-72
2023/09/26 07:29:19;;;;;;;6.80;6.03;;;;;;;13.62;100.00;98647.69;5134431;27;20576;-72
2023/09/26 07:31:46;;;;;;;7.83;6.07;;;;;;;13.64;100.00;98644.78;5134065;27;20698;-72
2023/09/26 07:34:13;;;;;;;6.67;5.83;;;;;;;13.67;100.00;98645.19;5134602;27;20209;-72
2023/09/26 07:36:39;;;;;;;8.03;5.60;;;;;;;13.68;100.00;98641.44;5133776;27;20197;-72
2023/09/26 07:39:06;;;;;;;7.10;5.87;;;;;;;13.76;100.00;98635.81;5134327;27;20232;-72
2023/09/26 07:41:32;;;;;;;6.17;5.57;;;;;;;13.79;100.00;98645.22;5134169;27;20684;-72
2023/09/26 07:43:59;;;;;;;8.00;6.20;;;;;;;13.87;100.00;98640.38;5134277;27;20210;-72
2023/09/26 07:46:26;;;;;;;9.93;6.13;;;;;;;14.10;100.00;98645.81;5134401;27;20267;-72
2023/09/26 07:48:52;;;;;;;6.57;5.83;;;;;;;14.17;100.00;98645.72;5133979;27;20232;-72
2023/09/26 07:51:19;;;;;;;6.83;5.37;;;;;;;14.22;100.00;98637.88;5133891;28;20206;-72
2023/09/26 07:53:45;;;;;;;7.80;5.63;;;;;;;14.41;100.00;98644.78;5134091;28;20202;-72
2023/09/26 07:56:11;;;;;;;8.03;5.67;;;;;;;14.47;100.00;98644.69;5133842;28;20198;-72
2023/09/26 07:58:38;;;;;;;8.10;5.37;;;;;;;14.47;100.00;98650.03;5134165;28;20229;-72
2023/09/26 08:01:06;;;;;;;5.63;5.13;;;;;;;14.60;100.00;98641.03;5134513;28;20206;-72
2023/09/26 08:03:33;;;;;;;5.97;5.37;;;;;;;14.76;100.00;98643.00;5134172;28;20203;-72
2023/09/26 08:06:04;;;;;;;9.50;5.97;;;;;;;14.76;100.00;98641.16;5134158;28;20249;-72
2023/09/26 08:08:31;;;;;;;6.93;5.33;;;;;;;14.79;100.00;98646.03;5134266;28;20228;-72
2023/09/26 08:11:07;;;;;;;9.53;6.00;;;;;;;14.86;100.00;98640.56;5134302;28;20575;-72
2023/09/26 08:13:34;;;;;;;6.83;5.17;;;;;;;14.99;100.00;98641.16;5133940;28;20629;-72
2023/09/26 08:16:00;;;;;;;5.30;4.80;;;;;;;15.10;100.00;98637.66;5134219;28;20285;-72
2023/09/26 08:18:27;;;;;;;6.47;5.03;;;;;;;15.27;100.00;98635.91;5133844;28;20227;-72
2023/09/26 08:20:55;;;;;;;6.90;5.00;;;;;;;15.47;100.00;98638.25;5133902;28;20218;-72
2023/09/26 08:23:26;;;;;;;11.17;5.13;;;;;;;15.66;100.00;98643.22;5133777;28;20207;-72
2023/09/26 08:26:06;;;;;;;11.87;5.60;;;;;;;15.65;100.00;98646.94;5133969;28;20211;-72
2023/09/26 08:28:34;;;;;;;8.27;5.23;;;;;;;15.70;100.00;98643.56;5134675;28;20237;-72
2023/09/26 08:31:09;;;;;;;13.00;5.93;;;;;;;15.85;100.00;98646.53;5133772;28;20214;-72
2023/09/26 08:33:37;;;;;;;8.07;5.30;;;;;;;15.84;100.00;98651.06;5133554;28;20675;-72
2023/09/26 08:36:12;;;;;;;7.33;4.73;;;;;;;15.87;100.00;98642.56;5133771;28;20195;-72
2023/09/26 08:38:39;;;;;;;8.87;5.00;;;;;;;15.92;100.00;98648.03;5133855;28;20222;-72
2023/09/26 08:41:06;;;;;;;6.33;5.00;;;;;;;16.01;100.00;98635.88;5133801;28;20228;-72
2023/09/26 08:43:34;;;;;;;8.33;5.00;;;;;;;16.18;100.00;98639.41;5133271;28;20206;-72
2023/09/26 08:46:01;;;;;;;9.00;4.73;;;;;;;16.27;100.00;98640.66;5133562;28;20225;-72
2023/09/26 08:48:28;;;;;;;5.83;5.13;;;;;;;16.50;100.00;98640.56;5136918;27;20222;-72
2023/09/26 08:50:55;;;;;;;7.27;5.13;;;;;;;16.38;100.00;98631.72;5137652;27;20290;-72
2023/09/26 08:53:22;;;;;;;10.17;5.40;;;;;;;16.47;100.00;98632.19;5137323;27;20657;-72
2023/09/26 08:55:49;;;;;;;5.40;4.90;;;;;;;16.58;100.00;98634.81;5137221;27;20210;-72
2023/09/26 08:58:17;;;;;;;6.87;4.80;;;;;;;16.77;100.00;98641.56;5137026;27;20235;-72
2023/09/26 09:00:44;;;;;;;7.07;5.40;;;;;;;16.92;100.00;98631.03;5137324;27;20202;-72
2023/09/26 09:03:11;;;;;;;6.57;4.57;;;;;;;16.91;100.00;98634.78;5137343;27;20573;-72
2023/09/26 09:05:38;;;;;;;5.97;4.90;;;;;;;16.97;100.00;98633.81;5137300;27;20206;-72
2023/09/26 09:08:06;;;;;;;6.10;4.40;;;;;;;17.26;100.00;98631.81;5137084;27;20222;-72
2023/09/26 09:10:32;;;;;;;9.43;4.80;;;;;;;17.29;100.00;98631.34;5137082;27;20198;-72
2023/09/26 09:13:04;;;;;;;5.70;4.83;;;;;;;17.52;100.00;98629.28;5137005;27;20202;-72
2023/09/26 09:15:30;;;;;;;6.60;5.10;;;;;;;17.64;100.00;98632.63;5136826;27;20649;-72
2023/09/26 09:17:57;;;;;;;6.43;5.27;;;;;;;17.66;100.00;98629.72;5136795;27;20250;-72
2023/09/26 09:20:35;;;;;;;7.33;5.10;;;;;;;17.78;100.00;98633.09;5136837;27;20209;-72
2023/09/26 09:23:06;;;;;;;6.60;4.97;;;;;;;17.77;100.00;98624.19;5137066;27;20209;-72
2023/09/26 09:25:40;;;;;;;6.97;4.83;;;;;;;17.77;100.00;98616.13;5136738;27;20550;-72
2023/09/26 09:28:08;;;;;;;11.13;5.10;;;;;;;18.19;100.00;98614.44;5136701;27;20230;-72
2023/09/26 09:30:44;;;;;;;6.87;6.00;;;;;;;18.20;100.00;98618.78;5136722;27;20202;-72
2023/09/26 09:33:10;;;;;;;6.20;5.60;;;;;;;18.21;100.00;98611.50;5137255;27;20187;-72
2023/09/26 09:35:38;;;;;;;8.17;4.93;;;;;;;18.34;100.00;98617.34;5136466;27;20198;-72
2023/09/26 09:38:08;;;;;;;7.20;5.50;;;;;;;18.59;100.00;98617.56;5136195;27;20701;-72
2023/09/26 09:40:35;;;;;;;6.57;5.97;;;;;;;18.63;100.00;98621.34;5136620;27;20183;-72
2023/09/26 09:43:01;;;;;;;8.07;6.10;;;;;;;18.52;100.00;98619.66;5136583;27;20229;-72
2023/09/26 09:45:30;;;;;;;9.83;7.60;;;;;;;18.81;100.00;98618.28;5136832;27;20291;-72
2023/09/26 09:47:58;;;;;;;7.87;7.07;;;;;;;18.85;100.00;98611.31;5136062;27;20585;-72
2023/09/26 09:50:27;;;;;;;7.23;6.47;;;;;;;18.87;100.00;98617.22;5136507;27;20198;-72
2023/09/26 09:52:59;;;;;;;6.67;6.10;;;;;;;18.92;100.00;98609.19;5136424;27;20202;-72
2023/09/26 09:55:32;;;;;;;8.27;6.30;;;;;;;19.14;100.00;98607.19;5136298;27;20586;-72
2023/09/26 09:58:02;;;;;;;7.17;5.80;;;;;;;19.27;100.00;98609.47;5135564;27;20704;-72
2023/09/26 10:00:31;;;;;;;6.33;5.73;;;;;;;19.29;100.00;98607.31;5135826;27;20210;-72
2023/09/26 10:03:00;;;;;;;6.20;5.57;;;;;;;19.48;100.00;98608.50;5118321;27;20198;-72
2023/09/26 10:05:28;;;;;;;6.47;5.87;;;;;;;19.32;100.00;98601.41;5136250;27;20207;-72
2023/09/26 10:07:57;;;;;;;6.50;4.87;;;;;;;19.48;100.00;98603.09;5116883;27;20321;-72
2023/09/26 10:10:24;;;;;;;6.50;4.57;;;;;;;19.67;100.00;98595.34;5136064;27;20297;-72
2023/09/26 10:12:52;;;;;;;5.43;3.97;;;;;;;19.84;100.00;98589.78;5135747;27;20205;-72
2023/09/26 10:15:18;;;;;;;6.07;4.37;;;;;;;19.88;100.00;98597.06;5135846;27;20206;-72
2023/09/26 10:17:48;;;;;;;6.13;4.00;;;;;;;20.03;100.00;98593.59;5135687;27;20229;-72
2023/09/26 10:20:15;;;;;;;5.13;4.23;;;;;;;20.10;100.00;98595.00;5135457;27;20244;-72
2023/09/26 10:22:44;;;;;;;5.00;3.20;;;;;;;20.05;100.00;98591.44;5135867;27;20208;-72
2023/09/26 10:25:19;;;;;;;4.93;3.33;;;;;;;20.21;99.91;98595.81;5135757;27;20208;-72
2023/09/26 10:27:47;;;;;;;4.50;3.43;;;;;;;19.96;100.00;98587.63;5135318;27;20233;-72
2023/09/26 10:30:15;;;;;;;3.43;2.93;;;;;;;19.87;100.00;98583.81;5135327;27;20202;-72
2023/09/26 10:32:43;;;;;;;4.93;3.60;;;;;;;20.16;98.80;98577.72;5135128;27;20214;-72
2023/09/26 10:35:15;;;;;;;3.47;3.17;;;;;;;20.32;99.08;98582.06;5135572;27;20202;-72
2023/09/26 10:37:44;;;;;;;5.27;3.37;;;;;;;20.45;97.47;98576.16;5135544;27;20223;-72
2023/09/26 10:40:15;;;;;;;3.77;3.40;;;;;;;20.21;100.00;98574.22;5135027;27;20661;-72
2023/09/26 10:42:46;;;;;;;4.53;3.10;;;;;;;20.35;99.25;98575.31;5135258;27;20210;-72
2023/09/26 10:45:14;;;;;;;2.90;2.70;;;;;;;20.65;98.57;98576.13;5134877;27;20550;-72
2023/09/26 10:47:41;;;;;;;3.20;2.90;;;;;;;20.75;92.62;98567.22;5135166;27;20225;-72
2023/09/26 10:50:13;;;;;;;4.67;3.07;;;;;;;20.79;92.30;98568.31;5134917;27;20207;-72
2023/09/26 10:52:46;;;;;;;3.60;3.20;;;;;;;20.72;92.56;98559.66;5134783;27;20557;-72
2023/09/26 10:55:20;;;;;;;4.57;3.00;;;;;;;20.53;94.15;98559.38;5135140;27;20267;-72
2023/09/26 10:57:50;;;;;;;2.37;2.27;;;;;;;20.42;94.97;98552.38;5134782;27;20219;-72
2023/09/26 11:00:17;;;;;;;4.03;2.40;;;;;;;20.47;95.35;98555.06;5134759;27;20210;-72
2023/09/26 11:02:44;;;;;;;3.07;2.57;;;;;;;20.34;93.12;98557.50;5134733;27;20255;-72
2023/09/26 11:05:13;;;;;;;3.90;2.93;;;;;;;20.37;92.07;98557.78;5134624;27;20680;-72
2023/09/26 11:07:41;;;;;;;4.60;2.50;;;;;;;20.33;93.43;98553.16;5134418;27;20253;-72
2023/09/26 11:10:17;;;;;;;3.97;2.47;;;;;;;20.68;92.73;98542.38;5134194;27;20209;-72
2023/09/26 11:12:47;;;;;;;2.50;2.30;;;;;;;21.13;90.89;98545.03;5134358;27;20664;-72
2023/09/26 11:15:13;;;;;;;3.20;2.43;;;;;;;21.04;88.43;98552.06;5134895;27;20198;-72
2023/09/26 11:17:39;;;;;;;3.57;2.40;;;;;;;21.08;90.09;98545.03;5134702;27;20214;-72
2023/09/26 11:20:11;;;;;;;3.03;2.30;;;;;;;21.02;87.30;98555.03;5134162;27;20625;-72
2023/09/26 11:22:45;;;;;;;2.80;2.60;;;;;;;20.80;88.17;98540.19;5116724;27;20194;-72
2023/09/26 11:25:11;;;;;;;4.63;2.30;;;;;;;21.14;85.38;98550.16;5134428;27;20206;-72